createdAt,value
2019-04-23T00:01:03.005Z,12.16
2019-04-23T00:01:50.984Z,12.19
2019-04-23T00:02:53.535Z,12.12
2019-04-23T00:03:47.585Z,12.15
2019-04-23T00:04:42.629Z,12.16
2019-04-23T00:06:07.350Z,12.18
2019-04-23T00:07:02.700Z,12.19
2019-04-23T00:08:23.324Z,12.11
2019-04-23T00:09:15.573Z,12.18
2019-04-23T00:09:49.680Z,12.07
2019-04-23T00:10:42.478Z,12.11
2019-04-23T00:11:51.816Z,12.16
2019-04-23T00:13:08.779Z,12.18
2019-04-23T00:14:11.625Z,12.18
2019-04-23T00:15:03.383Z,12.21
2019-04-23T00:15:54.810Z,12.12
2019-04-23T00:16:50.334Z,12.16
2019-04-23T00:17:48.949Z,12.13
2019-04-23T00:18:46.120Z,12.12
2019-04-23T00:19:48.552Z,12.15
2019-04-23T00:21:11.856Z,12.01
2019-04-23T00:21:45.878Z,11.98
2019-04-23T00:23:59.556Z,11.85
2019-04-23T00:25:12.110Z,11.78
2019-04-23T00:25:52.654Z,11.62
2019-04-23T00:27:22.633Z,11.63
2019-04-23T00:27:55.235Z,11.56
2019-04-23T00:29:00.573Z,11.45
2019-04-23T00:29:57.636Z,11.51
2019-04-23T00:30:58.252Z,11.48
2019-04-23T00:31:59.599Z,11.46
2019-04-23T00:32:48.108Z,11.42
2019-04-23T00:34:17.752Z,11.31
2019-04-23T00:37:49.550Z,11.23
2019-04-23T00:38:51.274Z,11.21
2019-04-23T00:41:33.328Z,11.03
2019-04-23T00:41:55.320Z,10.93
2019-04-23T00:43:08.958Z,10.93
2019-04-23T00:43:55.849Z,10.91
2019-04-23T00:44:52.800Z,10.93
2019-04-23T00:45:54.980Z,10.84
2019-04-23T00:46:55.992Z,10.81
2019-04-23T00:48:57.916Z,10.84
2019-04-23T00:49:58.667Z,10.87
2019-04-23T00:51:18.171Z,10.78
2019-04-23T00:52:00.750Z,10.88
2019-04-23T00:52:57.594Z,10.75
2019-04-23T00:53:54.686Z,10.78
2019-04-23T00:55:14.739Z,10.78
2019-04-23T00:56:03.121Z,10.86
2019-04-23T00:57:01.396Z,10.78
2019-04-23T00:57:58.537Z,10.90
2019-04-23T00:58:58.052Z,10.81
2019-04-23T01:00:03.468Z,10.75
2019-04-23T01:00:57.755Z,10.72
2019-04-23T01:02:01.038Z,10.83
2019-04-23T01:03:17.509Z,10.81
2019-04-23T01:04:18.559Z,10.81
2019-04-23T01:04:59.741Z,10.80
2019-04-23T01:05:57.126Z,10.86
2019-04-23T01:07:02.524Z,10.73
2019-04-23T01:08:00.070Z,10.76
2019-04-23T01:08:59.491Z,10.65
2019-04-23T01:10:06.152Z,10.62
2019-04-23T01:11:02.104Z,10.54
2019-04-23T01:12:03.841Z,10.54
2019-04-23T01:13:00.040Z,10.54
2019-04-23T01:14:04.360Z,10.57
2019-04-23T01:14:57.367Z,10.58
2019-04-23T01:16:00.720Z,10.66
2019-04-23T01:16:55.045Z,10.60
2019-04-23T01:18:03.004Z,10.66
2019-04-23T01:18:54.448Z,10.69
2019-04-23T01:19:54.737Z,10.60
2019-04-23T01:20:57.548Z,10.63
2019-04-23T01:21:57.955Z,10.58
2019-04-23T01:22:37.883Z,10.58
2019-04-23T01:23:47.108Z,10.69
2019-04-23T01:24:38.476Z,10.65
2019-04-23T01:25:51.661Z,10.60
2019-04-23T01:27:16.741Z,10.57
2019-04-23T01:28:04.491Z,10.69
2019-04-23T01:29:08.347Z,10.66
2019-04-23T01:31:08.950Z,10.69
2019-04-23T01:32:12.045Z,10.70
2019-04-23T01:33:05.934Z,10.69
2019-04-23T01:34:11.022Z,10.73
2019-04-23T01:35:20.170Z,10.81
2019-04-23T01:36:16.245Z,10.78
2019-04-23T01:37:07.770Z,10.81
2019-04-23T01:37:59.445Z,10.90
2019-04-23T01:39:06.503Z,10.93
2019-04-23T01:40:04.078Z,10.98
2019-04-23T01:41:07.823Z,10.98
2019-04-23T01:42:14.588Z,11.05
2019-04-23T01:43:04.323Z,10.98
2019-04-23T01:43:55.299Z,10.94
2019-04-23T01:45:07.048Z,10.95
2019-04-23T01:46:07.988Z,10.99
2019-04-23T01:47:15.594Z,11.05
2019-04-23T01:47:59.576Z,11.05
2019-04-23T01:49:07.424Z,11.05
2019-04-23T01:52:08.323Z,11.23
2019-04-23T01:54:30.369Z,11.17
2019-04-23T01:55:09.397Z,11.21
2019-04-23T01:56:06.239Z,11.26
2019-04-23T01:57:11.124Z,11.26
2019-04-23T01:58:25.831Z,11.23
2019-04-23T01:59:16.103Z,11.23
2019-04-23T02:00:14.100Z,11.23
2019-04-23T02:01:07.264Z,11.24
2019-04-23T02:02:08.660Z,11.26
2019-04-23T02:03:34.485Z,11.27
2019-04-23T02:04:14.753Z,11.30
2019-04-23T02:05:15.981Z,11.31
2019-04-23T02:06:09.581Z,11.28
2019-04-23T02:07:15.520Z,11.23
2019-04-23T02:08:08.362Z,11.17
2019-04-23T02:09:12.405Z,11.17
2019-04-23T02:10:16.782Z,11.16
2019-04-23T02:12:42.271Z,11.03
2019-04-23T02:13:47.362Z,10.98
2019-04-23T02:14:41.717Z,10.98
2019-04-23T02:15:40.900Z,10.87
2019-04-23T02:16:57.906Z,11.01
2019-04-23T02:17:47.770Z,11.05
2019-04-23T02:18:43.927Z,11.01
2019-04-23T02:19:49.197Z,10.94
2019-04-23T02:24:14.473Z,11.12
2019-04-23T02:25:16.202Z,10.93
2019-04-23T02:26:12.977Z,10.99
2019-04-23T02:27:13.328Z,10.99
2019-04-23T02:29:23.640Z,10.90
2019-04-23T02:30:49.001Z,11.03
2019-04-23T02:31:34.322Z,10.95
2019-04-23T02:32:23.177Z,10.91
2019-04-23T02:34:31.226Z,11.01
2019-04-23T02:36:39.919Z,10.84
2019-04-23T02:37:36.279Z,10.90
2019-04-23T02:39:49.522Z,10.88
2019-04-23T02:40:26.677Z,10.91
2019-04-23T02:41:41.314Z,10.87
2019-04-23T02:44:09.216Z,10.83
2019-04-23T02:44:56.323Z,10.95
2019-04-23T02:48:19.701Z,10.80
2019-04-23T02:48:58.312Z,10.80
2019-04-23T02:50:53.974Z,10.76
2019-04-23T02:52:03.979Z,10.75
2019-04-23T02:54:16.448Z,10.91
2019-04-23T02:57:13.980Z,10.90
2019-04-23T02:58:01.876Z,10.94
2019-04-23T02:59:05.633Z,11.01
2019-04-23T03:02:58.350Z,10.87
2019-04-23T03:04:57.015Z,10.84
2019-04-23T03:06:24.284Z,10.78
2019-04-23T03:07:09.439Z,10.81
2019-04-23T03:08:20.349Z,10.90
2019-04-23T03:09:07.069Z,10.83
2019-04-23T03:10:20.796Z,10.84
2019-04-23T03:12:02.630Z,10.94
2019-04-23T03:14:25.041Z,10.95
2019-04-23T03:16:06.440Z,10.87
2019-04-23T03:19:32.294Z,10.93
2019-04-23T03:20:32.944Z,11.01
2019-04-23T03:21:31.383Z,11.02
2019-04-23T03:22:35.557Z,11.03
2019-04-23T03:26:56.516Z,11.01
2019-04-23T03:30:30.203Z,10.98
2019-04-23T03:35:09.805Z,10.91
2019-04-23T03:38:05.856Z,10.69
2019-04-23T03:39:37.417Z,10.68
2019-04-23T03:41:15.717Z,10.58
2019-04-23T03:42:11.989Z,10.57
2019-04-23T03:43:07.081Z,10.63
2019-04-23T03:43:57.793Z,10.55
2019-04-23T03:45:27.834Z,10.65
2019-04-23T03:46:29.592Z,10.75
2019-04-23T03:48:08.031Z,10.73
2019-04-23T03:48:59.531Z,10.63
2019-04-23T03:51:05.655Z,10.72
2019-04-23T03:52:23.185Z,10.69
2019-04-23T03:53:04.602Z,10.62
2019-04-23T03:54:21.748Z,10.60
2019-04-23T03:55:28.026Z,10.70
2019-04-23T03:56:41.587Z,10.73
2019-04-23T03:57:23.658Z,10.70
2019-04-23T03:59:10.682Z,10.75
2019-04-23T04:00:17.677Z,10.66
2019-04-23T04:01:12.354Z,10.72
2019-04-23T04:02:20.800Z,10.84
2019-04-23T04:03:27.746Z,10.80
2019-04-23T04:04:31.729Z,10.91
2019-04-23T04:05:17.901Z,10.88
2019-04-23T04:06:13.807Z,10.95
2019-04-23T04:09:17.766Z,10.95
2019-04-23T04:09:59.477Z,10.90
2019-04-23T04:11:11.114Z,10.95
2019-04-23T04:12:16.497Z,10.93
2019-04-23T04:13:07.298Z,10.90
2019-04-23T04:14:23.418Z,10.81
2019-04-23T04:17:09.780Z,10.83
2019-04-23T04:19:24.757Z,10.83
2019-04-23T04:20:22.309Z,10.83
2019-04-23T04:21:14.483Z,10.86
2019-04-23T04:22:21.692Z,10.81
2019-04-23T04:24:21.754Z,10.76
2019-04-23T04:26:49.279Z,10.90
2019-04-23T04:28:17.844Z,10.81
2019-04-23T04:30:22.253Z,10.91
2019-04-23T04:31:13.667Z,10.76
2019-04-23T04:32:03.720Z,10.91
2019-04-23T04:33:41.358Z,10.78
2019-04-23T04:35:29.710Z,10.95
2019-04-23T04:37:35.525Z,10.84
2019-04-23T04:38:25.762Z,10.91
2019-04-23T04:39:15.644Z,10.91
2019-04-23T04:40:23.403Z,10.95
2019-04-23T04:42:30.758Z,10.83
2019-04-23T04:43:22.514Z,10.80
2019-04-23T04:45:23.377Z,10.78
2019-04-23T04:46:35.119Z,10.81
2019-04-23T04:47:25.766Z,10.95
2019-04-23T04:48:09.295Z,10.95
2019-04-23T04:49:30.484Z,10.98
2019-04-23T04:51:48.896Z,10.90
2019-04-23T04:53:47.784Z,10.86
2019-04-23T04:54:21.110Z,10.91
2019-04-23T04:56:21.353Z,10.80
2019-04-23T04:57:35.361Z,10.91
2019-04-23T04:58:35.169Z,10.98
2019-04-23T04:59:14.000Z,10.91
2019-04-23T05:00:20.847Z,11.03
2019-04-23T05:04:21.776Z,11.05
2019-04-23T05:06:39.392Z,10.99
2019-04-23T05:07:32.653Z,10.94
2019-04-23T05:08:19.993Z,11.01
2019-04-23T05:09:19.526Z,10.95
2019-04-23T05:10:29.813Z,10.99
2019-04-23T05:12:19.259Z,11.03
2019-04-23T05:14:26.490Z,11.13
2019-04-23T05:15:35.539Z,11.03
2019-04-23T05:17:30.051Z,10.94
2019-04-23T05:22:59.533Z,11.01
2019-04-23T05:23:54.104Z,10.94
2019-04-23T05:24:54.283Z,10.98
2019-04-23T05:25:51.255Z,10.94
2019-04-23T05:26:48.084Z,11.08
2019-04-23T05:28:07.972Z,11.16
2019-04-23T05:29:00.182Z,11.12
2019-04-23T05:30:22.627Z,11.19
2019-04-23T05:32:24.709Z,11.27
2019-04-23T05:33:22.413Z,11.20
2019-04-23T05:34:22.655Z,11.28
2019-04-23T05:37:25.807Z,11.27
2019-04-23T05:38:37.421Z,11.35
2019-04-23T05:39:29.078Z,11.31
2019-04-23T05:40:30.606Z,11.35
2019-04-23T05:41:33.835Z,11.39
2019-04-23T05:45:15.797Z,11.48
2019-04-23T05:50:00.690Z,11.62
2019-04-23T05:51:04.673Z,11.62
2019-04-23T05:53:05.641Z,11.63
2019-04-23T05:54:22.585Z,11.74
2019-04-23T05:56:34.995Z,11.88
2019-04-23T05:56:55.316Z,11.77
2019-04-23T05:58:03.665Z,11.74
2019-04-23T05:59:05.493Z,11.81
2019-04-23T06:00:02.106Z,11.78
2019-04-23T06:01:05.749Z,11.88
2019-04-23T06:01:57.355Z,11.84
2019-04-23T06:03:04.871Z,11.88
2019-04-23T06:04:17.710Z,11.94
2019-04-23T06:05:00.041Z,12.05
2019-04-23T06:06:04.485Z,12.00
2019-04-23T06:08:09.540Z,11.94
2019-04-23T06:09:09.201Z,12.08
2019-04-23T06:09:59.204Z,12.12
2019-04-23T06:11:01.907Z,12.13
2019-04-23T06:12:00.131Z,12.01
2019-04-23T06:12:57.754Z,12.07
2019-04-23T06:14:25.013Z,12.05
2019-04-23T06:15:01.163Z,12.12
2019-04-23T06:15:59.593Z,12.12
2019-04-23T06:17:11.852Z,12.13
2019-04-23T06:19:21.451Z,12.13
2019-04-23T06:20:07.207Z,12.08
2019-04-23T06:21:03.061Z,12.26
2019-04-23T06:22:11.179Z,12.30
2019-04-23T06:23:29.040Z,12.43
2019-04-23T06:24:15.142Z,12.34
2019-04-23T06:25:15.001Z,12.44
2019-04-23T06:26:25.520Z,12.46
2019-04-23T06:28:08.247Z,12.55
2019-04-23T06:29:07.129Z,12.62
2019-04-23T06:30:00.592Z,12.62
2019-04-23T06:31:13.784Z,12.70
2019-04-23T06:32:02.247Z,12.61
2019-04-23T06:33:11.648Z,12.73
2019-04-23T06:34:04.247Z,12.80
2019-04-23T06:35:13.862Z,12.76
2019-04-23T06:36:05.838Z,12.73
2019-04-23T06:37:24.530Z,12.87
2019-04-23T06:38:22.124Z,12.94
2019-04-23T06:40:00.146Z,12.84
2019-04-23T06:41:01.564Z,12.84
2019-04-23T06:42:42.901Z,12.92
2019-04-23T06:43:04.799Z,12.98
2019-04-23T06:44:14.746Z,12.94
2019-04-23T06:44:59.555Z,12.98
2019-04-23T06:46:04.881Z,12.99
2019-04-23T06:47:09.847Z,13.12
2019-04-23T06:48:32.206Z,13.14
2019-04-23T06:49:02.068Z,13.22
2019-04-23T06:49:58.513Z,13.27
2019-04-23T06:51:11.438Z,13.27
2019-04-23T06:52:58.952Z,13.38
2019-04-23T06:54:36.112Z,13.39
2019-04-23T07:00:48.806Z,13.63
2019-04-23T07:01:53.002Z,13.65
2019-04-23T07:02:45.143Z,13.69
2019-04-23T07:03:51.853Z,13.83
2019-04-23T07:05:55.095Z,13.99
2019-04-23T07:06:48.539Z,14.05
2019-04-23T07:08:05.968Z,14.16
2019-04-23T07:09:05.368Z,14.20
2019-04-23T07:09:48.847Z,14.31
2019-04-23T07:12:25.082Z,14.49
2019-04-23T07:13:21.167Z,14.64
2019-04-23T07:14:16.369Z,14.61
2019-04-23T07:16:21.594Z,14.67
2019-04-23T07:17:16.746Z,14.69
2019-04-23T07:18:18.242Z,14.85
2019-04-23T07:20:21.531Z,14.75
2019-04-23T07:21:43.641Z,14.78
2019-04-23T07:22:26.793Z,14.78
2019-04-23T07:23:21.004Z,14.75
2019-04-23T07:24:45.727Z,14.93
2019-04-23T07:25:39.020Z,14.98
2019-04-23T07:28:34.967Z,15.04
2019-04-23T07:29:22.792Z,15.01
2019-04-23T07:30:33.430Z,14.83
2019-04-23T07:32:15.225Z,14.87
2019-04-23T07:35:10.395Z,15.30
2019-04-23T07:37:00.102Z,15.44
2019-04-23T07:38:32.832Z,15.55
2019-04-23T07:40:21.468Z,15.60
2019-04-23T07:41:07.816Z,15.70
2019-04-23T07:42:29.689Z,15.68
2019-04-23T07:43:23.057Z,15.68
2019-04-23T07:44:36.827Z,15.76
2019-04-23T07:45:04.453Z,15.76
2019-04-23T07:46:10.508Z,15.78
2019-04-23T07:48:13.358Z,15.98
2019-04-23T07:49:08.424Z,15.96
2019-04-23T07:50:15.961Z,15.91
2019-04-23T07:51:00.494Z,15.98
2019-04-23T07:52:10.666Z,15.95
2019-04-23T07:54:11.323Z,16.01
2019-04-23T07:55:09.215Z,16.25
2019-04-23T07:57:10.694Z,16.22
2019-04-23T07:58:14.345Z,16.27
2019-04-23T07:59:03.959Z,16.42
2019-04-23T08:00:18.326Z,16.36
2019-04-23T08:02:08.138Z,16.62
2019-04-23T08:03:33.078Z,16.73
2019-04-23T08:04:04.685Z,16.80
2019-04-23T08:06:10.170Z,16.81
2019-04-23T08:07:06.572Z,16.90
2019-04-23T08:08:24.545Z,16.88
2019-04-23T08:09:03.580Z,16.66
2019-04-23T08:10:24.739Z,16.75
2019-04-23T08:11:23.550Z,16.69
2019-04-23T08:14:48.046Z,17.05
2019-04-23T08:15:45.203Z,17.06
2019-04-23T08:16:50.003Z,17.15
2019-04-23T08:17:43.348Z,17.12
2019-04-23T08:18:45.358Z,17.24
2019-04-23T08:19:49.072Z,17.28
2019-04-23T08:20:46.968Z,17.24
2019-04-23T08:21:36.313Z,17.25
2019-04-23T08:22:40.809Z,17.24
2019-04-23T08:23:49.594Z,17.35
2019-04-23T08:24:52.156Z,17.24
2019-04-23T08:25:44.839Z,17.10
2019-04-23T08:27:45.146Z,17.00
2019-04-23T08:30:09.288Z,16.82
2019-04-23T08:31:30.428Z,16.91
2019-04-23T08:32:19.605Z,17.09
2019-04-23T08:33:17.223Z,17.14
2019-04-23T08:34:31.492Z,17.03
2019-04-23T08:35:36.211Z,17.12
2019-04-23T08:38:01.508Z,17.39
2019-04-23T08:38:50.831Z,17.28
2019-04-23T08:42:33.662Z,17.60
2019-04-23T08:43:20.875Z,17.58
2019-04-23T08:43:59.518Z,17.60
2019-04-23T08:45:52.978Z,17.58
2019-04-23T08:46:56.738Z,17.76
2019-04-23T08:48:27.889Z,17.77
2019-04-23T08:48:57.566Z,17.81
2019-04-23T08:50:54.499Z,17.87
2019-04-23T08:52:56.133Z,17.66
2019-04-23T08:54:25.334Z,17.76
2019-04-23T08:54:52.356Z,17.92
2019-04-23T08:57:07.434Z,17.79
2019-04-23T08:58:22.465Z,17.92
2019-04-23T08:58:48.992Z,17.95
2019-04-23T09:00:17.717Z,18.05
2019-04-23T09:00:59.138Z,18.05
2019-04-23T09:02:03.625Z,18.13
2019-04-23T09:03:04.743Z,18.28
2019-04-23T09:03:57.408Z,18.29
2019-04-23T09:04:53.857Z,18.31
2019-04-23T09:07:00.799Z,18.56
2019-04-23T09:08:07.020Z,18.72
2019-04-23T09:08:49.976Z,18.72
2019-04-23T09:09:57.811Z,18.74
2019-04-23T09:11:32.417Z,18.74
2019-04-23T09:11:54.416Z,18.60
2019-04-23T09:13:11.278Z,18.42
2019-04-23T09:13:55.681Z,18.50
2019-04-23T09:16:28.687Z,18.42
2019-04-23T09:17:28.980Z,18.53
2019-04-23T09:18:27.874Z,18.46
2019-04-23T09:20:26.425Z,18.29
2019-04-23T09:23:58.004Z,18.50
2019-04-23T09:25:03.968Z,18.54
2019-04-23T09:29:41.075Z,18.31
2019-04-23T09:33:06.231Z,18.78
2019-04-23T09:36:30.788Z,18.87
2019-04-23T09:37:06.221Z,18.97
2019-04-23T09:37:59.706Z,19.05
2019-04-23T09:39:10.063Z,19.05
2019-04-23T09:40:18.899Z,19.09
2019-04-23T09:41:18.209Z,19.15
2019-04-23T09:42:33.521Z,19.24
2019-04-23T09:43:08.824Z,19.40
2019-04-23T09:44:47.260Z,19.49
2019-04-23T09:46:12.319Z,19.49
2019-04-23T09:47:10.321Z,19.50
2019-04-23T09:48:11.714Z,19.47
2019-04-23T09:49:09.808Z,19.32
2019-04-23T09:50:00.877Z,19.38
2019-04-23T09:51:30.216Z,19.46
2019-04-23T09:52:09.220Z,19.50
2019-04-23T09:54:40.250Z,19.52
2019-04-23T09:56:40.994Z,19.79
2019-04-23T09:59:17.649Z,19.82
2019-04-23T10:00:15.453Z,19.76
2019-04-23T10:01:09.849Z,19.82
2019-04-23T10:02:23.731Z,19.79
2019-04-23T10:02:47.349Z,19.79
2019-04-23T10:03:53.326Z,19.83
2019-04-23T10:04:56.989Z,19.86
2019-04-23T10:06:10.368Z,19.95
2019-04-23T10:07:07.201Z,19.98
2019-04-23T10:07:51.909Z,20.00
2019-04-23T10:08:47.415Z,19.98
2019-04-23T10:09:42.500Z,19.86
2019-04-23T10:10:42.295Z,19.87
2019-04-23T10:11:42.949Z,20.04
2019-04-23T10:14:16.606Z,20.04
2019-04-23T10:15:22.754Z,20.22
2019-04-23T10:16:19.401Z,20.00
2019-04-23T10:17:18.106Z,20.07
2019-04-23T10:19:53.098Z,20.08
2019-04-23T10:21:13.155Z,20.16
2019-04-23T10:21:53.256Z,20.15
2019-04-23T10:22:52.677Z,20.20
2019-04-23T10:23:57.083Z,20.48
2019-04-23T10:25:15.089Z,20.48
2019-04-23T10:25:54.102Z,20.56
2019-04-23T10:26:52.992Z,20.58
2019-04-23T10:28:15.212Z,20.68
2019-04-23T10:28:54.047Z,20.76
2019-04-23T10:30:19.328Z,20.81
2019-04-23T10:30:54.539Z,20.82
2019-04-23T10:31:53.691Z,20.71
2019-04-23T10:32:53.678Z,20.57
2019-04-23T10:33:53.485Z,20.61
2019-04-23T10:35:28.910Z,20.38
2019-04-23T10:36:00.856Z,20.41
2019-04-23T10:36:55.488Z,20.31
2019-04-23T10:38:02.098Z,20.26
2019-04-23T10:39:23.255Z,20.27
2019-04-23T10:40:00.925Z,20.27
2019-04-23T10:41:00.145Z,20.41
2019-04-23T10:41:55.450Z,20.53
2019-04-23T10:42:56.498Z,20.53
2019-04-23T10:47:06.956Z,20.51
2019-04-23T10:47:47.808Z,20.66
2019-04-23T10:50:31.639Z,21.01
2019-04-23T10:50:49.555Z,21.05
2019-04-23T10:51:51.745Z,21.28
2019-04-23T10:52:53.475Z,21.31
2019-04-23T10:53:45.945Z,21.40
2019-04-23T10:54:45.412Z,21.21
2019-04-23T10:55:54.125Z,21.22
2019-04-23T10:56:46.398Z,21.28
2019-04-23T10:57:36.148Z,21.22
2019-04-23T10:59:10.809Z,21.15
2019-04-23T10:59:58.541Z,21.27
2019-04-23T11:00:46.362Z,21.36
2019-04-23T11:02:04.568Z,21.52
2019-04-23T11:03:12.566Z,21.53
2019-04-23T11:04:42.955Z,21.75
2019-04-23T11:06:17.718Z,21.98
2019-04-23T11:06:49.989Z,21.98
2019-04-23T11:08:14.646Z,21.85
2019-04-23T11:09:06.391Z,21.79
2019-04-23T11:11:52.500Z,21.99
2019-04-23T11:14:58.254Z,22.08
2019-04-23T11:16:12.690Z,22.23
2019-04-23T11:16:57.315Z,22.17
2019-04-23T11:19:56.688Z,22.23
2019-04-23T11:21:00.541Z,22.09
2019-04-23T11:22:28.181Z,22.14
2019-04-23T11:22:58.483Z,22.05
2019-04-23T11:23:55.206Z,22.12
2019-04-23T11:24:48.874Z,22.19
2019-04-23T11:25:48.490Z,22.24
2019-04-23T11:27:19.101Z,22.36
2019-04-23T11:28:13.329Z,22.44
2019-04-23T11:28:45.014Z,22.42
2019-04-23T11:31:36.887Z,22.86
2019-04-23T11:33:20.264Z,23.00
2019-04-23T11:35:29.646Z,23.54
2019-04-23T11:38:01.636Z,22.96
2019-04-23T11:40:03.976Z,23.97
2019-04-23T11:41:00.906Z,24.48
2019-04-23T11:43:34.248Z,24.53
2019-04-23T11:48:07.530Z,25.46
2019-04-23T11:49:22.428Z,25.46
2019-04-23T11:51:45.905Z,26.28
2019-04-23T11:55:22.390Z,27.27
2019-04-23T11:56:02.869Z,27.66
2019-04-23T11:57:27.253Z,28.15
2019-04-23T11:58:13.779Z,28.02
2019-04-23T11:59:12.348Z,27.63
2019-04-23T12:00:05.589Z,28.01
2019-04-23T12:01:11.843Z,27.84
2019-04-23T12:01:56.453Z,27.20
2019-04-23T12:03:07.462Z,26.81
2019-04-23T12:05:32.113Z,26.91
2019-04-23T12:06:12.401Z,27.02
2019-04-23T12:08:33.475Z,27.61
2019-04-23T12:09:07.393Z,27.49
2019-04-23T12:10:18.937Z,27.80
2019-04-23T12:11:36.114Z,27.84
2019-04-23T12:12:02.244Z,28.02
2019-04-23T12:13:35.559Z,28.32
2019-04-23T12:14:10.255Z,28.76
2019-04-23T12:15:11.721Z,28.98
2019-04-23T12:16:10.578Z,29.18
2019-04-23T12:17:24.666Z,29.18
2019-04-23T12:18:28.621Z,29.20
2019-04-23T12:19:37.163Z,28.92
2019-04-23T12:20:13.556Z,29.15
2019-04-23T12:21:12.875Z,29.52
2019-04-23T12:22:15.086Z,29.91
2019-04-23T12:23:17.927Z,29.07
2019-04-23T12:24:17.397Z,29.12
2019-04-23T12:26:22.766Z,28.88
2019-04-23T12:28:07.020Z,28.02
2019-04-23T12:29:09.964Z,27.74
2019-04-23T12:30:12.175Z,27.88
2019-04-23T12:31:11.872Z,28.15
2019-04-23T12:32:24.132Z,27.98
2019-04-23T12:33:28.100Z,28.15
2019-04-23T12:34:08.959Z,28.77
2019-04-23T12:40:27.517Z,29.11
2019-04-23T12:41:36.137Z,28.33
2019-04-23T12:42:36.647Z,28.33
2019-04-23T12:43:17.480Z,29.08
2019-04-23T12:44:14.854Z,29.12
2019-04-23T12:45:25.000Z,28.92
2019-04-23T12:46:13.109Z,29.12
2019-04-23T12:47:27.521Z,29.42
2019-04-23T12:50:05.166Z,28.83
2019-04-23T12:51:55.514Z,29.45
2019-04-23T12:53:52.828Z,29.69
2019-04-23T12:54:58.896Z,29.62
2019-04-23T12:55:43.737Z,29.64
2019-04-23T12:57:01.236Z,29.41
2019-04-23T12:57:50.701Z,28.55
2019-04-23T12:59:16.703Z,27.62
2019-04-23T12:59:53.909Z,27.78
2019-04-23T13:01:17.398Z,28.11
2019-04-23T13:01:57.565Z,28.09
2019-04-23T13:03:45.953Z,28.40
2019-04-23T13:04:51.829Z,27.96
2019-04-23T13:05:49.927Z,27.28
2019-04-23T13:06:51.347Z,27.24
2019-04-23T13:07:52.191Z,27.66
2019-04-23T13:09:17.853Z,27.88
2019-04-23T13:11:50.099Z,28.72
2019-04-23T13:13:54.942Z,29.00
2019-04-23T13:14:56.036Z,29.17
2019-04-23T13:15:53.252Z,28.85
2019-04-23T13:17:38.123Z,28.92
2019-04-23T13:18:04.013Z,28.85
2019-04-23T13:19:29.235Z,28.64
2019-04-23T13:20:14.593Z,28.33
2019-04-23T13:20:47.666Z,28.54
2019-04-23T13:22:21.536Z,28.77
2019-04-23T13:22:54.917Z,28.42
2019-04-23T13:23:49.433Z,28.27
2019-04-23T13:24:57.829Z,28.13
2019-04-23T13:26:10.079Z,28.52
2019-04-23T13:26:56.921Z,28.82
2019-04-23T13:28:02.751Z,29.12
2019-04-23T13:28:52.642Z,29.18
2019-04-23T13:29:56.766Z,29.39
2019-04-23T13:31:59.031Z,29.70
2019-04-23T13:33:00.594Z,29.67
2019-04-23T13:33:51.490Z,29.92
2019-04-23T13:35:22.106Z,30.13
2019-04-23T13:36:03.266Z,29.89
2019-04-23T13:37:00.280Z,29.51
2019-04-23T13:38:27.263Z,29.15
2019-04-23T13:38:57.109Z,29.05
2019-04-23T13:39:51.583Z,28.65
2019-04-23T13:42:40.726Z,29.29
2019-04-23T13:43:36.256Z,29.45
2019-04-23T13:44:46.741Z,29.66
2019-04-23T13:45:53.140Z,29.32
2019-04-23T13:48:14.717Z,29.88
2019-04-23T13:51:32.115Z,28.89
2019-04-23T13:52:57.735Z,29.00
2019-04-23T13:54:06.031Z,29.52
2019-04-23T13:55:00.278Z,29.33
2019-04-23T13:55:35.976Z,29.36
2019-04-23T13:57:57.408Z,29.20
2019-04-23T13:58:38.757Z,28.42
2019-04-23T13:59:48.503Z,28.38
2019-04-23T14:00:52.239Z,28.33
2019-04-23T14:01:35.553Z,28.58
2019-04-23T14:03:41.400Z,28.73
2019-04-23T14:04:53.820Z,28.52
2019-04-23T14:05:41.168Z,28.42
2019-04-23T14:07:40.141Z,27.69
2019-04-23T14:10:08.448Z,27.43
2019-04-23T14:16:48.763Z,28.05
2019-04-23T14:18:02.803Z,27.69
2019-04-23T14:19:06.797Z,27.72
2019-04-23T14:20:10.328Z,27.76
2019-04-23T14:20:53.584Z,27.90
2019-04-23T14:23:17.883Z,27.71
2019-04-23T14:24:08.277Z,27.61
2019-04-23T14:24:53.236Z,27.93
2019-04-23T14:25:59.643Z,28.24
2019-04-23T14:27:08.732Z,28.58
2019-04-23T14:27:49.478Z,28.30
2019-04-23T14:29:55.958Z,27.58
2019-04-23T14:33:24.412Z,26.87
2019-04-23T14:34:15.808Z,26.98
2019-04-23T14:35:25.494Z,27.46
2019-04-23T14:36:37.049Z,27.23
2019-04-23T14:37:22.082Z,27.02
2019-04-23T14:40:29.621Z,26.21
2019-04-23T14:42:33.727Z,26.32
2019-04-23T14:43:49.367Z,26.65
2019-04-23T14:44:20.034Z,26.54
2019-04-23T14:45:44.217Z,26.59
2019-04-23T14:47:27.826Z,25.97
2019-04-23T14:48:39.121Z,25.89
2019-04-23T14:49:20.547Z,26.08
2019-04-23T14:50:32.438Z,26.06
2019-04-23T14:51:31.987Z,26.08
2019-04-23T14:53:24.541Z,25.67
2019-04-23T14:54:36.244Z,25.57
2019-04-23T14:56:22.279Z,25.14
2019-04-23T14:59:14.185Z,25.56
2019-04-23T14:59:57.351Z,25.16
2019-04-23T15:01:10.663Z,24.92
2019-04-23T15:02:00.833Z,24.90
2019-04-23T15:02:59.113Z,24.92
2019-04-23T15:03:55.932Z,24.75
2019-04-23T15:04:54.130Z,24.67
2019-04-23T15:07:02.558Z,24.66
2019-04-23T15:07:58.040Z,24.68
2019-04-23T15:09:07.415Z,24.56
2019-04-23T15:10:08.541Z,24.66
2019-04-23T15:11:26.424Z,24.77
2019-04-23T15:12:02.053Z,24.59
2019-04-23T15:13:00.038Z,24.61
2019-04-23T15:13:53.933Z,24.66
2019-04-23T15:16:07.772Z,24.87
2019-04-23T15:17:00.384Z,24.90
2019-04-23T15:18:29.732Z,24.70
2019-04-23T15:19:11.007Z,24.37
2019-04-23T15:19:55.137Z,24.08
2019-04-23T15:21:25.582Z,24.09
2019-04-23T15:22:07.858Z,23.94
2019-04-23T15:25:11.039Z,24.18
2019-04-23T15:26:54.126Z,24.18
2019-04-23T15:28:10.943Z,23.97
2019-04-23T15:28:41.203Z,23.92
2019-04-23T15:29:56.494Z,23.74
2019-04-23T15:31:02.749Z,23.71
2019-04-23T15:32:03.181Z,23.57
2019-04-23T15:36:14.230Z,23.62
2019-04-23T15:37:14.116Z,23.54
2019-04-23T15:38:38.210Z,23.53
2019-04-23T15:40:34.416Z,23.49
2019-04-23T15:42:36.904Z,23.26
2019-04-23T15:44:03.097Z,23.31
2019-04-23T15:44:55.349Z,23.26
2019-04-23T15:45:46.066Z,23.04
2019-04-23T15:46:35.446Z,23.03
2019-04-23T15:47:53.381Z,23.19
2019-04-23T15:49:01.187Z,23.09
2019-04-23T15:50:40.137Z,22.88
2019-04-23T15:51:35.453Z,22.84
2019-04-23T15:54:37.091Z,22.81
2019-04-23T15:55:01.460Z,22.85
2019-04-23T15:56:13.881Z,22.74
2019-04-23T15:57:45.219Z,22.63
2019-04-23T16:01:43.867Z,22.61
2019-04-23T16:02:42.879Z,22.63
2019-04-23T16:03:45.314Z,22.66
2019-04-23T16:04:46.992Z,22.75
2019-04-23T16:05:44.691Z,22.78
2019-04-23T16:06:43.672Z,22.69
2019-04-23T16:08:01.719Z,22.70
2019-04-23T16:09:08.073Z,22.67
2019-04-23T16:10:14.463Z,22.60
2019-04-23T16:11:15.755Z,22.64
2019-04-23T16:12:03.430Z,22.52
2019-04-23T16:13:29.130Z,22.57
2019-04-23T16:14:22.751Z,22.63
2019-04-23T16:15:15.220Z,22.64
2019-04-23T16:16:14.606Z,22.75
2019-04-23T16:19:07.711Z,22.64
2019-04-23T16:19:54.982Z,22.60
2019-04-23T16:21:26.641Z,22.63
2019-04-23T16:22:39.438Z,22.56
2019-04-23T16:23:45.827Z,22.51
2019-04-23T16:24:48.523Z,22.46
2019-04-23T16:25:50.339Z,22.59
2019-04-23T16:28:23.986Z,22.49
2019-04-23T16:32:28.078Z,22.31
2019-04-23T16:33:14.123Z,22.30
2019-04-23T16:34:22.497Z,22.17
2019-04-23T16:35:28.640Z,22.21
2019-04-23T16:36:19.781Z,22.30
2019-04-23T16:37:20.133Z,22.35
2019-04-23T16:39:16.816Z,22.33
2019-04-23T16:40:19.646Z,22.33
2019-04-23T16:41:21.931Z,22.33
2019-04-23T16:42:29.760Z,22.31
2019-04-23T16:43:46.702Z,22.19
2019-04-23T16:44:24.331Z,22.15
2019-04-23T16:46:18.156Z,22.20
2019-04-23T16:47:18.659Z,22.24
2019-04-23T16:49:23.156Z,22.20
2019-04-23T16:50:20.912Z,22.11
2019-04-23T16:52:21.784Z,22.04
2019-04-23T16:53:26.699Z,22.01
2019-04-23T16:54:26.317Z,22.01
2019-04-23T16:55:17.890Z,22.02
2019-04-23T16:58:33.735Z,21.94
2019-04-23T16:59:19.867Z,21.93
2019-04-23T17:00:43.775Z,21.81
2019-04-23T17:01:13.755Z,21.83
2019-04-23T17:02:19.713Z,21.85
2019-04-23T17:03:26.187Z,21.83
2019-04-23T17:04:24.273Z,21.79
2019-04-23T17:05:23.679Z,21.81
2019-04-23T17:07:16.733Z,21.74
2019-04-23T17:08:45.654Z,21.73
2019-04-23T17:09:36.791Z,21.66
2019-04-23T17:12:55.943Z,21.70